Terminal Aerodrome Forecast
Issued by NWS

Home | Current Version | Previous Version | Text Only | Print | Product List | Glossary On
Versions: 1 2 3 4 5 6 7 8 9 10 11 12 13 14 15 16 17 18 19 20 21 22 23 24 25 26
000
FTUS44 KTSA 191100
TAFXNA
TAF
KXNA 191140Z 1912/2012 10004KT P6SM SCT012
      TEMPO 1912/1915 BKN012
     FM191500 13005KT P6SM SCT015 SCT250
     FM191800 15007KT P6SM SCT040
      TEMPO 1919/1923 BKN040
     FM200100 16003KT P6SM SCT250
      TEMPO 2009/2012 3SM BR=

USA.gov is the U.S. government's official web portal to all federal, state and local government web resources and services.